Portada
METAR-TAF:

METAR-TAF

Aeropuertos :

Aeropuerto de Pantelleria

Pantelaria, Italia

latitud: 36-49N, longitud: 011-58E, altitud: 191 m

Observación

El informe se hizo hace 42 minutos, a las 10:50 UTC
Viento 16 kt del noroeste
Temperatura 14°C
Humedad 77%
Presión 1016 hPa
Visibilidad 10 km o más
Escasas nubes a una altura de 1500 ft

METAR: LICG 041050Z 31016KT 9999 FEW015 14/10 Q1016

Hora: 13:32 (11:32 UTC)

Pronóstico

El informe se hizo hace 32 minutos, a las 11:00 UTC
Pronóstico válido del 04 a las 12 UTC al 04 a las 21 UTC
Viento 15 kt del norte-noroeste
Visibilidad 10 km o más
sin nubes por debajo de 1500 m y sin presencia de cumulonimbus.

TAF: LICG 041100Z 0412/0421 34015KT CAVOK

Observaciones y pronósticos meteorológicos de más de 4000 aeropuertos (mensajes METAR y TAF).

Los puntos amarillos y rojos representan las estaciones disponibles.

Ponga el ratón en el punto deseado para ver el nombre de la estación.

Haga clic para ver las observaciones y los pronósticos meteorológicos.

Para cambiar el mapa : haga clic en los botones verdes con una cruz de color negro para hacer un zoom, en el botón verde con un guión para alejar o en las flechas verdes para mapas adyacentes.


METAR-TAF: